createdAt,value
2022-11-21T00:00:01.163Z,5.5
2022-11-21T00:01:01.106Z,5.5
2022-11-21T00:02:01.104Z,5.6
2022-11-21T00:03:01.126Z,5.4
2022-11-21T00:04:01.118Z,5.5
2022-11-21T00:05:01.369Z,5.6
2022-11-21T00:06:02.066Z,5.6
2022-11-21T00:07:01.184Z,5.7
2022-11-21T00:08:01.175Z,5.7
2022-11-21T00:09:01.162Z,5.9
2022-11-21T00:10:01.052Z,5.9
2022-11-21T00:11:01.069Z,5.9
2022-11-21T00:12:01.082Z,5.8
2022-11-21T00:13:01.057Z,5.8
2022-11-21T00:14:01.089Z,5.9
2022-11-21T00:15:01.324Z,5.9
2022-11-21T00:16:01.123Z,6
2022-11-21T00:17:01.397Z,6
2022-11-21T00:18:01.245Z,6
2022-11-21T00:19:01.367Z,6.2
2022-11-21T00:20:01.135Z,6.3
2022-11-21T00:21:01.242Z,6.3
2022-11-21T00:22:01.540Z,6.2
2022-11-21T00:23:01.258Z,6.2
2022-11-21T00:24:01.160Z,6.2
2022-11-21T00:25:01.178Z,6.1
2022-11-21T00:26:01.074Z,6.3
2022-11-21T00:27:01.421Z,6.4
2022-11-21T00:28:01.082Z,6.5
2022-11-21T00:29:01.376Z,6.5
2022-11-21T00:30:01.451Z,6.5
2022-11-21T00:31:02.031Z,6.5
2022-11-21T00:32:01.111Z,6.5
2022-11-21T00:33:01.106Z,6.3
2022-11-21T00:34:01.119Z,6.4
2022-11-21T00:35:01.153Z,6.4
2022-11-21T00:36:01.136Z,6.3
2022-11-21T00:37:01.617Z,6.4
2022-11-21T00:38:02.572Z,6.3
2022-11-21T00:39:01.231Z,6.5
2022-11-21T00:40:01.156Z,6.4
2022-11-21T00:41:01.267Z,6.4
2022-11-21T00:42:01.985Z,6.4
2022-11-21T00:43:01.991Z,6.3
2022-11-21T00:44:01.096Z,6.3
2022-11-21T00:45:01.472Z,6.3
2022-11-21T00:46:02.332Z,6.4
2022-11-21T00:47:01.090Z,6.6
2022-11-21T00:48:01.137Z,6.5
2022-11-21T00:49:01.095Z,6.6
2022-11-21T00:50:01.050Z,6.6
2022-11-21T00:51:01.705Z,6.7
2022-11-21T00:52:01.128Z,6.9
2022-11-21T00:53:01.109Z,6.9
2022-11-21T00:54:00.915Z,6.7
2022-11-21T00:55:01.266Z,6.9
2022-11-21T00:56:02.851Z,6.9
2022-11-21T00:57:01.148Z,6.8
2022-11-21T00:58:01.175Z,6.8
2022-11-21T00:59:01.109Z,6.8
2022-11-21T01:00:00.771Z,6.9
2022-11-21T01:01:06.074Z,6.9
2022-11-21T01:02:02.175Z,6.9
2022-11-21T01:03:01.819Z,6.9
2022-11-21T01:04:01.271Z,7
2022-11-21T01:05:02.121Z,6.9
2022-11-21T01:06:08.716Z,7
2022-11-21T01:07:01.246Z,7.1
2022-11-21T01:08:01.130Z,7.1
2022-11-21T01:09:01.929Z,7.2
2022-11-21T01:10:01.848Z,7.1
2022-11-21T01:11:12.659Z,7.1
2022-11-21T01:12:01.141Z,7.1
2022-11-21T01:13:01.143Z,7.2
2022-11-21T01:14:01.175Z,7.2
2022-11-21T01:15:01.163Z,7.3
2022-11-21T01:16:14.360Z,7.5
2022-11-21T01:17:02.613Z,7.4
2022-11-21T01:18:02.079Z,7.5
2022-11-21T01:19:01.429Z,7.5
2022-11-21T01:20:01.076Z,7.4
2022-11-21T01:21:01.089Z,7.4
2022-11-21T01:22:01.850Z,7.5
2022-11-21T01:23:01.108Z,7.6
2022-11-21T01:24:01.117Z,7.7
2022-11-21T01:25:01.138Z,7.6
2022-11-21T01:26:01.435Z,7.7
2022-11-21T01:27:01.245Z,7.8
2022-11-21T01:28:01.260Z,7.7
2022-11-21T01:29:02.352Z,7.7
2022-11-21T01:30:01.890Z,7.6
2022-11-21T01:31:02.072Z,7.5
2022-11-21T01:32:01.068Z,7.7
2022-11-21T01:33:01.081Z,7.8
2022-11-21T01:34:01.095Z,7.8
2022-11-21T01:35:01.103Z,7.7
2022-11-21T01:36:01.362Z,7.8
2022-11-21T01:37:01.083Z,7.9
2022-11-21T01:38:01.114Z,8
2022-11-21T01:39:01.655Z,8.2
2022-11-21T01:40:01.119Z,8
2022-11-21T01:41:01.126Z,7.8
2022-11-21T01:42:01.137Z,7.9
2022-11-21T01:43:01.136Z,8.2
2022-11-21T01:44:01.329Z,8.3
2022-11-21T01:45:01.452Z,8.2
2022-11-21T01:46:01.189Z,8.2
2022-11-21T01:47:01.065Z,8.3
2022-11-21T01:48:01.160Z,8.3
2022-11-21T01:49:01.058Z,8.3
2022-11-21T01:50:01.072Z,8.3
2022-11-21T01:51:01.084Z,8.3
2022-11-21T01:52:01.225Z,8.3
2022-11-21T01:53:01.457Z,8.3
2022-11-21T01:54:01.106Z,8.3
2022-11-21T01:55:01.409Z,8.3
2022-11-21T01:56:01.141Z,8.3
2022-11-21T01:57:01.135Z,8.3
2022-11-21T01:58:01.795Z,8.4
2022-11-21T01:59:01.510Z,8.4
2022-11-21T02:00:01.168Z,8.3
2022-11-21T02:01:01.135Z,8.4
2022-11-21T02:02:01.153Z,8.5
2022-11-21T02:03:01.141Z,8.6
2022-11-21T02:04:01.172Z,8.7
2022-11-21T02:05:01.360Z,8.8
2022-11-21T02:06:02.030Z,8.7
2022-11-21T02:07:01.493Z,8.9
2022-11-21T02:08:01.087Z,9.2
2022-11-21T02:09:01.079Z,9.5
2022-11-21T02:10:01.091Z,9.8
2022-11-21T02:11:01.104Z,9.9
2022-11-21T02:12:01.101Z,10.1
2022-11-21T02:13:01.334Z,10.2
2022-11-21T02:14:02.216Z,10.4
2022-11-21T02:15:02.966Z,10.6
2022-11-21T02:16:01.170Z,10.7
2022-11-21T02:17:01.238Z,10.8
2022-11-21T02:18:01.081Z,10.9
2022-11-21T02:19:01.149Z,11.1
2022-11-21T02:20:01.148Z,11.2
2022-11-21T02:21:01.225Z,11.4
2022-11-21T02:22:02.148Z,11.6
2022-11-21T02:23:04.139Z,11.8
2022-11-21T02:24:01.316Z,12.1
2022-11-21T02:25:01.093Z,12.4
2022-11-21T02:26:01.187Z,12.5
2022-11-21T02:27:03.870Z,12.8
2022-11-21T02:28:01.969Z,13.2
2022-11-21T02:29:01.825Z,13.4
2022-11-21T02:30:01.515Z,13.8
2022-11-21T02:31:01.263Z,14
2022-11-21T02:32:02.808Z,14.3
2022-11-21T02:33:01.930Z,14.6
2022-11-21T02:34:01.144Z,14.8
2022-11-21T02:35:01.134Z,14.9
2022-11-21T02:36:01.153Z,15.1
2022-11-21T02:37:06.188Z,15.4
2022-11-21T02:38:01.460Z,15.6
2022-11-21T02:39:01.069Z,15.8
2022-11-21T02:40:01.069Z,16
2022-11-21T02:41:01.073Z,16.2
2022-11-21T02:42:08.901Z,16.4
2022-11-21T02:43:01.090Z,16.6
2022-11-21T02:44:01.066Z,16.9
2022-11-21T02:45:01.117Z,17.2
2022-11-21T02:46:01.117Z,17.3
2022-11-21T02:47:11.403Z,17.7
2022-11-21T02:48:04.198Z,18
2022-11-21T02:49:02.667Z,18.2
2022-11-21T02:50:01.805Z,18.2
2022-11-21T02:51:01.345Z,18.3
2022-11-21T02:52:14.356Z,18.6
2022-11-21T02:53:01.185Z,18.8
2022-11-21T02:54:01.061Z,18.8
2022-11-21T02:55:01.352Z,19
2022-11-21T02:56:01.461Z,19
2022-11-21T02:57:01.197Z,19.3
2022-11-21T02:58:04.833Z,19.4
2022-11-21T02:59:01.075Z,19.5
2022-11-21T03:00:01.061Z,19.7
2022-11-21T03:01:01.137Z,19.9
2022-11-21T03:02:01.803Z,20
2022-11-21T03:03:02.047Z,20.1
2022-11-21T03:04:02.487Z,20.3
2022-11-21T03:05:01.506Z,20.5
2022-11-21T03:06:01.136Z,20.7
2022-11-21T03:07:02.010Z,21.1
2022-11-21T03:08:01.144Z,21.4
2022-11-21T03:09:01.166Z,21.6
2022-11-21T03:10:01.152Z,21.9
2022-11-21T03:11:01.073Z,22.1
2022-11-21T03:12:01.311Z,22.4
2022-11-21T03:13:01.748Z,22.7
2022-11-21T03:14:01.426Z,22.9
2022-11-21T03:15:01.087Z,23.1
2022-11-21T03:16:01.068Z,23.5
2022-11-21T03:17:01.124Z,23.8
2022-11-21T03:18:01.141Z,24.3
2022-11-21T03:19:01.843Z,24.7
2022-11-21T03:20:01.127Z,25
2022-11-21T03:21:01.054Z,25.4
2022-11-21T03:22:01.064Z,25.7
2022-11-21T03:23:01.509Z,26
2022-11-21T03:24:01.040Z,26.3
2022-11-21T03:25:01.150Z,26.6
2022-11-21T03:26:01.164Z,26.8
2022-11-21T03:27:01.048Z,26.9
2022-11-21T03:28:01.057Z,27.2
2022-11-21T03:29:01.119Z,27.5
2022-11-21T03:30:01.248Z,27.8
2022-11-21T03:31:01.155Z,28.1
2022-11-21T03:32:01.173Z,28.4
2022-11-21T03:33:01.108Z,28.7
2022-11-21T03:34:01.062Z,28.9
2022-11-21T03:35:01.733Z,29.1
2022-11-21T03:36:00.714Z,29.2
2022-11-21T03:37:00.396Z,29.3
2022-11-21T03:38:00.087Z,29.4
2022-11-21T03:38:59.733Z,29.6
2022-11-21T03:40:01.370Z,29.8
2022-11-21T03:41:02.051Z,29.8
2022-11-21T03:42:01.162Z,29.8
2022-11-21T03:43:01.160Z,29.8
2022-11-21T03:44:00.975Z,29.8
2022-11-21T03:45:00.668Z,30.1
2022-11-21T03:46:00.377Z,30.4
2022-11-21T03:47:00.054Z,30.7
2022-11-21T03:47:59.646Z,30.8
2022-11-21T03:49:01.474Z,31.1
2022-11-21T03:50:04.053Z,31.3
2022-11-21T03:51:01.130Z,31.5
2022-11-21T03:52:01.116Z,31.6
2022-11-21T03:53:01.135Z,31.6
2022-11-21T03:54:01.516Z,31.7
2022-11-21T03:55:01.904Z,31.7
2022-11-21T03:56:01.181Z,31.7
2022-11-21T03:57:01.151Z,31.7
2022-11-21T03:58:01.141Z,31.9
2022-11-21T03:59:01.184Z,32
2022-11-21T04:00:01.794Z,32.3
2022-11-21T04:01:01.212Z,33
2022-11-21T04:02:01.484Z,33.5
2022-11-21T04:03:01.081Z,33.8
2022-11-21T04:04:01.085Z,34.1
2022-11-21T04:05:01.095Z,34.6
2022-11-21T04:06:01.107Z,34.6
2022-11-21T04:07:01.152Z,34.9
2022-11-21T04:08:01.341Z,35.4
2022-11-21T04:09:01.922Z,36
2022-11-21T04:10:01.151Z,36.6
2022-11-21T04:11:01.139Z,37
2022-11-21T04:12:06.417Z,37.8
2022-11-21T04:13:04.000Z,38
2022-11-21T04:14:01.787Z,38.7
2022-11-21T04:15:01.187Z,39.1
2022-11-21T04:16:01.179Z,39.5
2022-11-21T04:17:01.179Z,39.5
2022-11-21T04:18:07.197Z,39.4
2022-11-21T04:19:01.172Z,39.4
2022-11-21T04:20:01.128Z,39.6
2022-11-21T04:21:01.101Z,39.6
2022-11-21T04:22:01.294Z,39.7
2022-11-21T04:23:09.766Z,39.8
2022-11-21T04:24:01.466Z,39.9
2022-11-21T04:25:02.102Z,40.1
2022-11-21T04:26:01.516Z,40.1
2022-11-21T04:27:01.516Z,40.4
2022-11-21T04:28:12.943Z,40.6
2022-11-21T04:29:01.070Z,40.8
2022-11-21T04:30:01.382Z,41.1
2022-11-21T04:31:02.274Z,41.6
2022-11-21T04:32:01.161Z,41.7
2022-11-21T04:33:15.128Z,41.8
2022-11-21T04:34:01.372Z,42.5
2022-11-21T04:35:01.090Z,42.6
2022-11-21T04:36:01.099Z,42.6
2022-11-21T04:37:01.369Z,42.7
2022-11-21T04:38:01.122Z,42.8
2022-11-21T04:39:00.728Z,42.9
2022-11-21T04:40:00.377Z,42.9
2022-11-21T04:40:59.996Z,43
2022-11-21T04:41:59.805Z,43.3
2022-11-21T04:43:01.724Z,43.4
2022-11-21T04:44:02.051Z,43.5
2022-11-21T04:45:01.425Z,43.5
2022-11-21T04:46:01.065Z,43.3
2022-11-21T04:47:05.332Z,43.2
2022-11-21T04:48:01.152Z,43.2
2022-11-21T04:49:01.056Z,43.2
2022-11-21T04:50:01.091Z,43.1
2022-11-21T04:51:01.396Z,43.3
2022-11-21T04:52:01.387Z,43.4
2022-11-21T04:53:01.399Z,43.4
2022-11-21T04:54:02.172Z,43.3
2022-11-21T04:55:01.120Z,43.5
2022-11-21T04:56:01.098Z,43.6
2022-11-21T04:57:01.100Z,43.6
2022-11-21T04:58:01.048Z,43.7
2022-11-21T04:59:01.126Z,44
2022-11-21T05:00:01.579Z,43.9
2022-11-21T05:01:01.258Z,43.7
2022-11-21T05:02:01.683Z,43.5
2022-11-21T05:03:01.208Z,43.7
2022-11-21T05:04:00.851Z,43.7
2022-11-21T05:05:00.583Z,43.8
2022-11-21T05:06:00.262Z,43.8
2022-11-21T05:07:00.002Z,43.7
2022-11-21T05:07:59.624Z,43.7
2022-11-21T05:09:01.368Z,43.8
2022-11-21T05:10:01.493Z,43.8
2022-11-21T05:11:01.054Z,43.7
2022-11-21T05:12:01.088Z,43.7
2022-11-21T05:13:01.111Z,43.7
2022-11-21T05:14:01.705Z,43.8
2022-11-21T05:15:01.493Z,43.7
2022-11-21T05:16:01.201Z,43.8
2022-11-21T05:17:01.144Z,44
2022-11-21T05:18:01.263Z,43.9
2022-11-21T05:19:01.775Z,43.8
2022-11-21T05:20:01.058Z,43.9
2022-11-21T05:21:01.595Z,43.9
2022-11-21T05:22:01.774Z,43.9
2022-11-21T05:23:01.265Z,44
2022-11-21T05:24:01.146Z,44
2022-11-21T05:25:01.076Z,43.9
2022-11-21T05:26:01.093Z,43.8
2022-11-21T05:27:01.098Z,43.7
2022-11-21T05:28:01.094Z,43.6
2022-11-21T05:29:01.043Z,43.6
2022-11-21T05:30:01.243Z,43.6
2022-11-21T05:31:02.348Z,43.9
2022-11-21T05:32:02.441Z,43.8
2022-11-21T05:33:01.013Z,43.9
2022-11-21T05:34:00.661Z,43.9
2022-11-21T05:35:00.320Z,44
2022-11-21T05:36:00.013Z,43.9
2022-11-21T05:36:59.607Z,43.7
2022-11-21T05:38:01.199Z,43.6
2022-11-21T05:39:01.867Z,43.6
2022-11-21T05:40:01.869Z,43.7
2022-11-21T05:41:01.433Z,43.7
2022-11-21T05:42:03.142Z,43.9
2022-11-21T05:43:02.639Z,43.9
2022-11-21T05:44:02.908Z,44
2022-11-21T05:45:01.210Z,43.9
2022-11-21T05:46:02.442Z,43.9
2022-11-21T05:47:01.127Z,43.9
2022-11-21T05:48:01.168Z,43.8
2022-11-21T05:49:00.888Z,43.8
2022-11-21T05:50:01.507Z,43.7
2022-11-21T05:51:00.736Z,43.7
2022-11-21T05:52:00.329Z,43.8
2022-11-21T05:53:00.040Z,43.9
2022-11-21T05:54:04.425Z,43.9
2022-11-21T05:55:01.058Z,43.9
2022-11-21T05:56:01.425Z,44.1
2022-11-21T05:57:01.454Z,43.9
2022-11-21T05:58:01.456Z,43.6
2022-11-21T05:59:07.592Z,43.6
2022-11-21T06:00:01.134Z,43.5
2022-11-21T06:01:01.094Z,43.2
2022-11-21T06:02:01.115Z,43
2022-11-21T06:03:01.162Z,43.1
2022-11-21T06:04:11.463Z,43.4
2022-11-21T06:05:00.808Z,43.2
2022-11-21T06:06:00.378Z,42.8
2022-11-21T06:07:00.142Z,42.4
2022-11-21T06:07:59.769Z,42
2022-11-21T06:09:14.585Z,41.8
2022-11-21T06:10:01.099Z,41.8
2022-11-21T06:11:01.731Z,41.8
2022-11-21T06:12:01.971Z,42
2022-11-21T06:13:02.408Z,41.8
2022-11-21T06:14:16.775Z,41.8
2022-11-21T06:15:01.096Z,41.8
2022-11-21T06:16:01.052Z,41.8
2022-11-21T06:17:01.079Z,41.8
2022-11-21T06:18:01.113Z,41.8
2022-11-21T06:19:01.100Z,41.7
2022-11-21T06:20:01.146Z,41.7
2022-11-21T06:21:01.221Z,41.7
2022-11-21T06:22:01.127Z,41.7
2022-11-21T06:23:01.367Z,41.7
2022-11-21T06:24:01.379Z,41.7
2022-11-21T06:25:02.049Z,41.8
2022-11-21T06:26:01.148Z,41.8
2022-11-21T06:27:01.711Z,41.8
2022-11-21T06:28:01.292Z,41.9
2022-11-21T06:29:02.332Z,41.8
2022-11-21T06:30:01.241Z,41.8
2022-11-21T06:31:01.871Z,41.1
2022-11-21T06:32:01.882Z,41
2022-11-21T06:33:02.028Z,41
2022-11-21T06:34:01.239Z,41.1
2022-11-21T06:35:01.137Z,41.5
2022-11-21T06:36:01.114Z,41.6
2022-11-21T06:37:01.122Z,41.6
2022-11-21T06:38:01.148Z,41.5
2022-11-21T06:39:01.129Z,41.5
2022-11-21T06:40:01.315Z,41.5
2022-11-21T06:41:01.427Z,41.1
2022-11-21T06:42:01.398Z,41.2
2022-11-21T06:43:01.423Z,40.7
2022-11-21T06:44:02.075Z,40.4
2022-11-21T06:45:01.070Z,40.5
2022-11-21T06:46:01.089Z,40.5
2022-11-21T06:47:01.222Z,40.4
2022-11-21T06:48:01.130Z,40.2
2022-11-21T06:49:01.164Z,40
2022-11-21T06:50:01.583Z,39.8
2022-11-21T06:51:01.226Z,39.9
2022-11-21T06:52:01.112Z,39.9
2022-11-21T06:53:00.838Z,40
2022-11-21T06:54:00.399Z,40
2022-11-21T06:55:00.001Z,39.8
2022-11-21T06:55:59.627Z,39.6
2022-11-21T06:57:01.193Z,39.6
2022-11-21T06:58:01.594Z,39.5
2022-11-21T06:59:01.293Z,39.5
2022-11-21T07:00:02.030Z,39.5
2022-11-21T07:01:02.043Z,39.6
2022-11-21T07:02:01.954Z,39.7
2022-11-21T07:03:03.333Z,39.8
2022-11-21T07:04:01.095Z,39.9
2022-11-21T07:05:01.095Z,40
2022-11-21T07:06:01.103Z,39.9
2022-11-21T07:07:01.100Z,39.8
2022-11-21T07:08:01.236Z,39.6
2022-11-21T07:10:01.243Z,39.2
2022-11-21T07:11:24.274Z,39.1
2022-11-21T07:12:02.596Z,38.7
2022-11-21T07:13:01.641Z,38.5
2022-11-21T07:14:06.233Z,37.9
2022-11-21T07:15:01.483Z,37.2
2022-11-21T07:16:01.158Z,37
2022-11-21T07:17:01.057Z,36.8
2022-11-21T07:18:01.063Z,36.6
2022-11-21T07:19:04.556Z,36
2022-11-21T07:20:01.286Z,35.7
2022-11-21T07:21:04.015Z,35.5
2022-11-21T07:22:01.223Z,35.4
2022-11-21T07:23:01.143Z,34.4
2022-11-21T07:24:01.217Z,33.9
2022-11-21T07:25:02.236Z,33.7
2022-11-21T07:26:01.142Z,33.8
2022-11-21T07:27:01.139Z,33.8
2022-11-21T07:28:01.125Z,34.1
2022-11-21T07:29:01.135Z,34
2022-11-21T07:30:01.290Z,33.8
2022-11-21T07:31:01.359Z,33.7
2022-11-21T07:32:01.529Z,33.8
2022-11-21T07:33:01.950Z,33.8
2022-11-21T07:34:01.443Z,33.8
2022-11-21T07:35:02.697Z,33.6
2022-11-21T07:36:01.070Z,33.5
2022-11-21T07:37:01.082Z,33.6
2022-11-21T07:38:01.196Z,33.5
2022-11-21T07:39:01.152Z,33.4
2022-11-21T07:40:06.105Z,33.3
2022-11-21T07:41:02.127Z,33
2022-11-21T07:42:01.402Z,32.3
2022-11-21T07:43:01.112Z,32
2022-11-21T07:44:01.130Z,31.9
2022-11-21T07:45:08.482Z,31.6
2022-11-21T07:46:01.434Z,31.5
2022-11-21T07:47:01.152Z,31.5
2022-11-21T07:48:01.153Z,31.3
2022-11-21T07:49:03.514Z,31.4
2022-11-21T07:50:10.597Z,31.4
2022-11-21T07:51:01.923Z,31.3
2022-11-21T07:52:01.607Z,31.3
2022-11-21T07:53:00.674Z,31.5
2022-11-21T07:54:00.393Z,31.5
2022-11-21T07:55:12.620Z,31.1
2022-11-21T07:56:02.126Z,31.2
2022-11-21T07:57:01.909Z,31.4
2022-11-21T07:58:01.121Z,31.3
2022-11-21T07:59:01.128Z,31.2
2022-11-21T08:00:16.632Z,31.4
2022-11-21T08:01:01.242Z,31.2
2022-11-21T08:02:02.068Z,31.3
2022-11-21T08:03:01.288Z,31.3
2022-11-21T08:04:01.144Z,31
2022-11-21T08:05:01.156Z,30.9
2022-11-21T08:06:01.072Z,30.1
2022-11-21T08:07:01.170Z,29.9
2022-11-21T08:08:01.428Z,29.9
2022-11-21T08:09:01.176Z,29.6
2022-11-21T08:10:01.321Z,29.9
2022-11-21T08:11:01.085Z,29.5
2022-11-21T08:12:01.341Z,29.5
2022-11-21T08:13:00.784Z,29.5
2022-11-21T08:14:00.383Z,29.3
2022-11-21T08:14:59.970Z,29.4
2022-11-21T08:15:59.695Z,29.5
2022-11-21T08:17:01.384Z,28.9
2022-11-21T08:18:02.169Z,29
2022-11-21T08:19:01.753Z,29
2022-11-21T08:20:01.947Z,28.7
2022-11-21T08:21:01.437Z,28.6
2022-11-21T08:22:01.250Z,28.3
2022-11-21T08:23:01.464Z,27.1
2022-11-21T08:24:01.587Z,27.2
2022-11-21T08:25:01.464Z,27
2022-11-21T08:26:01.089Z,27.2
2022-11-21T08:27:01.099Z,27.4
2022-11-21T08:28:00.784Z,27.6
2022-11-21T08:29:00.517Z,27.5
2022-11-21T08:30:00.178Z,27.5
2022-11-21T08:31:00.247Z,27.5
2022-11-21T08:32:00.360Z,27.5
2022-11-21T08:33:00.374Z,27.5
2022-11-21T08:34:00.095Z,27.4
2022-11-21T08:34:59.686Z,27.2
2022-11-21T08:36:01.791Z,27.2
2022-11-21T08:37:01.461Z,26.9
2022-11-21T08:38:02.181Z,26.7
2022-11-21T08:39:01.267Z,26.1
2022-11-21T08:40:02.357Z,25.9
2022-11-21T08:41:01.563Z,25.8
2022-11-21T08:42:01.464Z,25.7
2022-11-21T08:43:01.122Z,25.8
2022-11-21T08:44:01.094Z,25.7
2022-11-21T08:45:01.091Z,25.4
2022-11-21T08:46:01.099Z,25
2022-11-21T08:47:01.444Z,24.9
2022-11-21T08:48:01.112Z,24.8
2022-11-21T08:49:01.123Z,24.3
2022-11-21T08:50:05.803Z,24.2
2022-11-21T08:51:01.129Z,24.1
2022-11-21T08:52:01.152Z,23.7
2022-11-21T08:53:00.831Z,23.7
2022-11-21T08:54:01.162Z,23.3
2022-11-21T08:55:01.121Z,23.5
2022-11-21T08:56:04.396Z,23.5
2022-11-21T08:57:01.600Z,23.5
2022-11-21T08:58:01.315Z,23.5
2022-11-21T08:59:02.808Z,23.5
2022-11-21T09:00:02.232Z,23.5
2022-11-21T09:01:01.915Z,23.6
2022-11-21T09:02:02.109Z,23.6
2022-11-21T09:03:01.117Z,23.3
2022-11-21T09:04:01.105Z,22.9
2022-11-21T09:05:01.113Z,22.9
2022-11-21T09:06:01.511Z,23
2022-11-21T09:07:01.218Z,23.1
2022-11-21T09:08:01.150Z,23
2022-11-21T09:09:01.144Z,23.1
2022-11-21T09:10:01.353Z,23.1
2022-11-21T09:11:01.154Z,23.1
2022-11-21T09:12:01.058Z,23.1
2022-11-21T09:13:00.769Z,23
2022-11-21T09:14:00.762Z,23
2022-11-21T09:15:00.348Z,22.7
2022-11-21T09:16:00.047Z,22.8
2022-11-21T09:17:02.326Z,22.7
2022-11-21T09:18:01.779Z,22.5
2022-11-21T09:19:01.105Z,21.8
2022-11-21T09:20:01.236Z,21.5
2022-11-21T09:21:01.313Z,21.2
2022-11-21T09:22:01.134Z,20.8
2022-11-21T09:23:01.431Z,20.7
2022-11-21T09:24:01.546Z,20.8
2022-11-21T09:25:01.232Z,20.9
2022-11-21T09:26:02.939Z,20.9
2022-11-21T09:27:01.162Z,20.7
2022-11-21T09:28:01.064Z,20.5
2022-11-21T09:29:01.078Z,20.2
2022-11-21T09:30:01.073Z,20.3
2022-11-21T09:31:05.777Z,19.9
2022-11-21T09:32:01.489Z,19.1
2022-11-21T09:33:01.570Z,19.2
2022-11-21T09:34:00.994Z,19.5
2022-11-21T09:35:01.064Z,19.4
2022-11-21T09:36:08.887Z,19.6
2022-11-21T09:37:01.787Z,19.5
2022-11-21T09:38:02.570Z,19.6
2022-11-21T09:39:01.422Z,19.5
2022-11-21T09:40:01.232Z,19.5
2022-11-21T09:41:11.649Z,19.4
2022-11-21T09:42:02.247Z,19.4
2022-11-21T09:43:01.248Z,19.6
2022-11-21T09:44:01.069Z,19.5
2022-11-21T09:45:01.059Z,19.5
2022-11-21T09:46:15.016Z,19.4
2022-11-21T09:47:01.072Z,19.3
2022-11-21T09:48:01.150Z,19.3
2022-11-21T09:49:01.228Z,19.3
2022-11-21T09:50:01.478Z,19.1
2022-11-21T09:51:01.203Z,18.8
2022-11-21T09:52:01.108Z,18.8
2022-11-21T09:53:01.217Z,18.8
2022-11-21T09:54:01.118Z,19.1
2022-11-21T09:55:01.347Z,19.2
2022-11-21T09:56:01.292Z,19.3
2022-11-21T09:57:01.491Z,19.4
2022-11-21T09:58:00.872Z,19.4
2022-11-21T09:59:00.549Z,19.3
2022-11-21T10:00:00.238Z,19
2022-11-21T10:01:00.000Z,19.1
2022-11-21T10:01:59.661Z,18.9
2022-11-21T10:03:01.320Z,19
2022-11-21T10:04:01.170Z,18.8
2022-11-21T10:05:01.101Z,18.8
2022-11-21T10:06:01.088Z,18.5
2022-11-21T10:07:01.558Z,18.8
2022-11-21T10:08:01.216Z,18.8
2022-11-21T10:09:02.717Z,18.8
2022-11-21T10:10:01.128Z,18.8
2022-11-21T10:11:08.160Z,18.8
2022-11-21T10:12:01.123Z,18.8
2022-11-21T10:13:01.150Z,18.8
2022-11-21T10:14:02.193Z,18.8
2022-11-21T10:15:01.101Z,18.8
2022-11-21T10:16:01.064Z,18.8
2022-11-21T10:17:01.181Z,18.9
2022-11-21T10:18:00.891Z,18.8
2022-11-21T10:19:00.652Z,18.8
2022-11-21T10:20:00.350Z,19.2
2022-11-21T10:21:00.040Z,19.2
2022-11-21T10:21:59.733Z,19.3
2022-11-21T10:23:01.549Z,19.4
2022-11-21T10:24:01.503Z,19.3
2022-11-21T10:25:02.120Z,18.9
2022-11-21T10:26:01.433Z,18.8
2022-11-21T10:27:02.128Z,18.8
2022-11-21T10:28:02.068Z,18.8
2022-11-21T10:29:01.215Z,19
2022-11-21T10:30:01.144Z,19.2
2022-11-21T10:31:01.142Z,19.5
2022-11-21T10:32:01.531Z,19.6
2022-11-21T10:33:00.859Z,19.7
2022-11-21T10:34:00.408Z,19.7
2022-11-21T10:35:00.029Z,19.6
2022-11-21T10:35:59.683Z,19.4
2022-11-21T10:37:01.757Z,18.8
2022-11-21T10:38:01.388Z,18.8
2022-11-21T10:39:01.252Z,18.3
2022-11-21T10:40:01.169Z,18.2
2022-11-21T10:41:01.707Z,17.9
2022-11-21T10:42:01.318Z,18.1
2022-11-21T10:43:02.052Z,18.1
2022-11-21T10:44:01.142Z,18
2022-11-21T10:45:01.126Z,18.2
2022-11-21T10:46:01.137Z,18.4
2022-11-21T10:47:01.144Z,18.5
2022-11-21T10:48:06.725Z,18.6
2022-11-21T10:49:01.654Z,18.7
2022-11-21T10:50:01.849Z,18.3
2022-11-21T10:51:01.846Z,18.1
2022-11-21T10:52:01.070Z,17.7
2022-11-21T10:53:00.863Z,17.5
2022-11-21T10:54:07.325Z,17.4
2022-11-21T10:55:01.061Z,16.9
2022-11-21T10:56:00.690Z,16.9
2022-11-21T10:57:00.275Z,17
2022-11-21T10:58:00.886Z,17.1
2022-11-21T10:59:01.147Z,17.1
2022-11-21T11:00:01.137Z,16.8
2022-11-21T11:01:01.212Z,16.6
2022-11-21T11:02:01.829Z,16.8
2022-11-21T11:03:02.104Z,16.9
2022-11-21T11:04:26.182Z,16.8
2022-11-21T11:05:01.053Z,16.8
2022-11-21T11:06:01.249Z,16.6
2022-11-21T11:07:00.888Z,16.7
2022-11-21T11:08:01.170Z,17
2022-11-21T11:09:01.074Z,16.9
2022-11-21T11:10:01.086Z,16.9
2022-11-21T11:11:01.844Z,17.1
2022-11-21T11:12:04.286Z,17.3
2022-11-21T11:13:02.134Z,17.5
2022-11-21T11:14:01.147Z,17.5
2022-11-21T11:15:01.127Z,17.2
2022-11-21T11:16:01.829Z,17.1
2022-11-21T11:17:06.578Z,17.1
2022-11-21T11:18:07.681Z,17.1
2022-11-21T11:19:01.239Z,17.2
2022-11-21T11:20:01.328Z,17.1
2022-11-21T11:21:01.156Z,17.3
2022-11-21T11:22:09.587Z,17.4
2022-11-21T11:23:01.165Z,17.5
2022-11-21T11:24:01.099Z,17.4
2022-11-21T11:25:01.775Z,17.1
2022-11-21T11:26:01.487Z,16.8
2022-11-21T11:27:11.166Z,16.8
2022-11-21T11:28:01.300Z,16.8
2022-11-21T11:29:01.125Z,16.7
2022-11-21T11:30:01.114Z,16.7
2022-11-21T11:31:01.113Z,16.8
2022-11-21T11:32:19.412Z,16.8
2022-11-21T11:33:01.325Z,16.7
2022-11-21T11:34:01.282Z,16.5
2022-11-21T11:35:01.602Z,16.4
2022-11-21T11:36:01.136Z,16.3
2022-11-21T11:37:15.843Z,16.4
2022-11-21T11:38:04.116Z,16.4
2022-11-21T11:39:01.977Z,16.3
2022-11-21T11:40:01.150Z,16.3
2022-11-21T11:41:01.272Z,16.4
2022-11-21T11:42:01.381Z,16.4
2022-11-21T11:43:02.271Z,17.7
2022-11-21T11:44:02.114Z,18
2022-11-21T11:45:02.118Z,17.7
2022-11-21T11:46:01.498Z,17.7
2022-11-21T11:47:01.230Z,17.8
2022-11-21T11:48:01.943Z,17.4
2022-11-21T11:49:19.766Z,17.3
2022-11-21T11:50:01.153Z,17
2022-11-21T11:51:01.136Z,16.9
2022-11-21T11:52:01.143Z,17
2022-11-21T11:53:01.176Z,17
2022-11-21T11:54:01.383Z,16.9
2022-11-21T11:55:01.159Z,16.8
2022-11-21T11:56:01.057Z,16.7
2022-11-21T11:57:01.076Z,16.7
2022-11-21T11:58:01.106Z,16.7
2022-11-21T11:59:01.488Z,16.7
2022-11-21T12:00:01.168Z,16.7
2022-11-21T12:01:01.320Z,16.7
2022-11-21T12:02:01.153Z,16.9
2022-11-21T12:03:01.131Z,16.9
2022-11-21T12:04:01.340Z,17.1
2022-11-21T12:05:01.116Z,17
2022-11-21T12:06:05.998Z,17
2022-11-21T12:09:01.428Z,16.6
2022-11-21T12:10:01.163Z,16.5
2022-11-21T12:11:01.178Z,16.7
2022-11-21T12:12:01.164Z,16.7
2022-11-21T12:13:01.466Z,16.3
2022-11-21T12:14:00.660Z,16.6
2022-11-21T12:15:00.265Z,16.8
2022-11-21T12:16:05.907Z,16.8
2022-11-21T12:17:01.159Z,16.4
2022-11-21T12:18:01.051Z,16.2
2022-11-21T12:19:01.107Z,16.2
2022-11-21T12:20:01.111Z,16.3
2022-11-21T12:21:01.111Z,16.3
2022-11-21T12:22:01.115Z,16
2022-11-21T12:23:01.518Z,16.1
2022-11-21T12:24:01.139Z,16
2022-11-21T12:25:01.149Z,15.7
2022-11-21T12:26:01.145Z,15.5
2022-11-21T12:27:01.149Z,15.6
2022-11-21T12:28:01.146Z,15.7
2022-11-21T12:29:01.050Z,15.5
2022-11-21T12:30:01.078Z,15.5
2022-11-21T12:31:01.083Z,15.6
2022-11-21T12:32:01.091Z,15.6
2022-11-21T12:33:07.963Z,15.6
2022-11-21T12:34:00.799Z,15.3
2022-11-21T12:35:00.371Z,15.2
2022-11-21T12:36:14.493Z,15.2
2022-11-21T12:37:01.109Z,15.1
2022-11-21T12:38:01.311Z,15
2022-11-21T12:39:01.378Z,14.7
2022-11-21T12:40:02.090Z,14.1
2022-11-21T12:41:01.479Z,13.6
2022-11-21T12:42:01.133Z,13
2022-11-21T12:43:01.164Z,12.7
2022-11-21T12:44:01.060Z,12.7
2022-11-21T12:45:01.207Z,12.6
2022-11-21T12:46:01.445Z,12.4
2022-11-21T12:47:01.070Z,12.4
2022-11-21T12:48:03.381Z,12.5
2022-11-21T12:49:01.074Z,12.6
2022-11-21T12:50:01.151Z,12.7
2022-11-21T12:51:01.160Z,12.6
2022-11-21T12:52:00.893Z,12.6
2022-11-21T12:53:04.982Z,12.6
2022-11-21T12:54:00.664Z,12.6
2022-11-21T12:55:00.395Z,12.2
2022-11-21T12:56:00.100Z,11.8
2022-11-21T12:57:00.094Z,11.4
2022-11-21T12:58:08.264Z,10.9
2022-11-21T12:59:01.770Z,10.3
2022-11-21T13:00:01.989Z,9.8
2022-11-21T13:01:01.962Z,9.7
2022-11-21T13:02:01.443Z,9.7
2022-11-21T13:03:10.803Z,9.8
2022-11-21T13:04:01.404Z,10.4
2022-11-21T13:05:01.406Z,10.8
2022-11-21T13:06:01.418Z,10.8
2022-11-21T13:07:01.574Z,10.9
2022-11-21T13:08:12.619Z,11.1
2022-11-21T13:09:01.307Z,11.2
2022-11-21T13:10:01.191Z,11.2
2022-11-21T13:11:01.135Z,11.1
2022-11-21T13:12:01.133Z,11
2022-11-21T13:13:14.251Z,10.9
2022-11-21T13:14:02.365Z,10.5
2022-11-21T13:15:01.150Z,10.2
2022-11-21T13:16:01.168Z,10.3
2022-11-21T13:17:01.151Z,10.3
2022-11-21T13:18:16.833Z,10.2
2022-11-21T13:19:01.067Z,10.1
2022-11-21T13:20:01.075Z,9.9
2022-11-21T13:21:01.085Z,9.7
2022-11-21T13:22:01.078Z,9.9
2022-11-21T13:23:01.103Z,9.9
2022-11-21T13:24:01.200Z,10
2022-11-21T13:25:01.392Z,10
2022-11-21T13:26:01.489Z,10
2022-11-21T13:27:01.121Z,10.4
2022-11-21T13:28:01.179Z,10.9
2022-11-21T13:29:01.038Z,10.9
2022-11-21T13:30:01.136Z,11.4